Time;durP1;ratioP1;P1;durP2;ratioP2;P2;SDS_P1;SDS_P2;PMS_P1;PMS_P2;Temp;Humidity;BMP_temperature;BMP_pressure;BME280_temperature;BME280_humidity;BME280_pressure;Samples;Min_cycle;Max_cycle;Signal;HPM_P1;HPM_P2
2023/10/10 00:00:47;;;;;;;5.70;2.30;;;;;;;;;;5911432;28;20040;-74
2023/10/10 00:03:40;;;;;;;5.72;2.58;;;;;;;;;;5903013;28;20052;-75
2023/10/10 00:06:38;;;;;;;3.50;2.85;;;;;;;;;;5911775;28;20044;-74
2023/10/10 00:09:29;;;;;;;9.05;2.30;;;;;;;;;;5911544;28;20120;-73
2023/10/10 00:12:26;;;;;;;3.85;3.22;;;;;;;;;;5893673;28;20522;-75
2023/10/10 00:15:22;;;;;;;6.00;4.00;;;;;;;;;;5911345;28;20052;-73
2023/10/10 00:18:21;;;;;;;5.60;3.28;;;;;;;;;;5911475;28;20058;-74
2023/10/10 00:21:22;;;;;;;5.97;4.15;;;;;;;;;;5911070;28;20063;-74
2023/10/10 00:24:14;;;;;;;3.13;2.83;;;;;;;;;;5911058;28;20495;-73
2023/10/10 00:27:14;;;;;;;6.15;3.65;;;;;;;;;;5911028;28;20044;-73
2023/10/10 00:30:08;;;;;;;7.72;4.20;;;;;;;;;;5910996;28;20041;-76
2023/10/10 00:33:04;;;;;;;6.35;3.47;;;;;;;;;;5911019;28;20045;-75
2023/10/10 00:35:57;;;;;;;14.45;4.30;;;;;;;;;;5911509;28;20179;-75
2023/10/10 00:42:05;;;;;;;4.30;2.97;;;;;;;;;;5895621;28;20032;-73
2023/10/10 00:44:56;;;;;;;6.38;2.88;;;;;;;;;;5911431;28;20064;-74
2023/10/10 00:47:52;;;;;;;3.42;2.60;;;;;;;;;;5910597;28;20048;-75
2023/10/10 00:50:46;;;;;;;5.57;4.72;;;;;;;;;;5910555;28;20064;-75
2023/10/10 00:53:45;;;;;;;5.88;4.32;;;;;;;;;;5910693;28;20044;-73
2023/10/10 00:56:36;;;;;;;3.83;3.47;;;;;;;;;;5910709;28;20410;-74
2023/10/10 00:59:42;;;;;;;5.45;4.53;;;;;;;;;;5892764;28;20500;-73
2023/10/10 01:02:34;;;;;;;5.35;3.70;;;;;;;;;;5894227;28;20129;-74
2023/10/10 01:05:39;;;;;;;5.53;3.78;;;;;;;;;;5910605;28;20056;-72
2023/10/10 01:08:53;;;;;;;7.05;3.88;;;;;;;;;;5894686;28;20048;-76
2023/10/10 01:11:48;;;;;;;6.50;3.38;;;;;;;;;;5910284;28;20131;-73
2023/10/10 01:14:39;;;;;;;9.15;4.35;;;;;;;;;;5910333;28;20045;-74
2023/10/10 01:17:30;;;;;;;5.13;3.97;;;;;;;;;;5910452;28;20152;-74
2023/10/10 01:23:51;;;;;;;6.15;3.78;;;;;;;;;;5879657;28;20060;-76
2023/10/10 01:26:45;;;;;;;9.13;3.50;;;;;;;;;;5910347;28;20049;-75
2023/10/10 01:29:49;;;;;;;6.97;3.08;;;;;;;;;;5910217;28;20052;-72
2023/10/10 01:32:40;;;;;;;3.28;2.75;;;;;;;;;;5909965;28;20307;-75
2023/10/10 01:35:34;;;;;;;3.92;2.92;;;;;;;;;;5892558;28;20088;-74
2023/10/10 01:38:44;;;;;;;5.07;3.63;;;;;;;;;;5910019;28;20055;-73
2023/10/10 01:41:38;;;;;;;4.03;3.53;;;;;;;;;;5910262;28;20055;-76
2023/10/10 01:44:30;;;;;;;6.05;3.75;;;;;;;;;;5892730;28;20049;-74
2023/10/10 01:47:26;;;;;;;5.35;3.80;;;;;;;;;;5909726;28;20159;-75
2023/10/10 01:50:17;;;;;;;8.30;3.58;;;;;;;;;;5909962;28;20047;-75
2023/10/10 01:53:10;;;;;;;5.95;3.85;;;;;;;;;;5910082;28;20055;-74
2023/10/10 01:56:06;;;;;;;4.00;3.60;;;;;;;;;;5910044;28;20047;-74
2023/10/10 01:58:57;;;;;;;3.08;2.83;;;;;;;;;;5910436;28;20045;-75
2023/10/10 02:01:48;;;;;;;3.53;3.22;;;;;;;;;;5892047;28;20049;-74
2023/10/10 02:04:40;;;;;;;4.97;3.83;;;;;;;;;;5909948;28;20132;-73
2023/10/10 02:07:34;;;;;;;5.15;4.47;;;;;;;;;;5909742;28;20460;-73
2023/10/10 02:10:32;;;;;;;4.07;3.67;;;;;;;;;;5909957;28;20474;-73
2023/10/10 02:13:25;;;;;;;4.38;3.78;;;;;;;;;;5911768;28;20048;-75
2023/10/10 02:16:23;;;;;;;5.35;3.13;;;;;;;;;;5914103;28;20048;-75
2023/10/10 02:19:24;;;;;;;5.82;2.92;;;;;;;;;;5913851;28;20134;-73
2023/10/10 02:22:22;;;;;;;4.82;3.97;;;;;;;;;;5913611;28;20498;-74
2023/10/10 02:31:09;;;;;;;4.30;3.88;;;;;;;;;;5913668;28;20048;-75
2023/10/10 02:34:03;;;;;;;5.90;3.58;;;;;;;;;;5914211;28;20044;-72
2023/10/10 02:40:13;;;;;;;8.48;4.32;;;;;;;;;;5858497;28;20174;-74
2023/10/10 02:43:19;;;;;;;4.53;3.42;;;;;;;;;;5888427;28;20053;-73
2023/10/10 02:46:10;;;;;;;3.00;2.80;;;;;;;;;;5908136;28;20457;-72
2023/10/10 02:49:12;;;;;;;4.47;3.33;;;;;;;;;;5913563;28;20048;-75
2023/10/10 02:52:08;;;;;;;3.78;3.47;;;;;;;;;;5895872;28;20045;-74
2023/10/10 02:54:58;;;;;;;3.08;2.78;;;;;;;;;;5896694;28;20056;-72
2023/10/10 02:57:53;;;;;;;5.60;3.72;;;;;;;;;;5898405;28;20045;-74
2023/10/10 03:00:47;;;;;;;8.18;4.00;;;;;;;;;;5904090;28;20572;-74
2023/10/10 03:03:41;;;;;;;6.68;3.55;;;;;;;;;;5912980;28;20110;-72
2023/10/10 03:06:32;;;;;;;4.47;3.22;;;;;;;;;;5913074;28;20045;-73
2023/10/10 03:09:42;;;;;;;3.00;2.60;;;;;;;;;;5912961;28;20037;-73
2023/10/10 03:12:37;;;;;;;2.92;2.63;;;;;;;;;;5896397;28;20048;-75
2023/10/10 03:15:28;;;;;;;6.13;3.35;;;;;;;;;;5891807;28;20045;-74
2023/10/10 03:18:19;;;;;;;3.80;3.50;;;;;;;;;;5889665;28;20396;-74
2023/10/10 03:24:51;;;;;;;3.08;2.78;;;;;;;;;;5912173;28;20052;-75
2023/10/10 03:30:24;;;;;;;8.20;4.95;;;;;;;;;;5912452;28;20055;-72
2023/10/10 03:33:16;;;;;;;8.98;4.05;;;;;;;;;;5912279;28;20049;-75
2023/10/10 05:23:30;;;;;;;3.70;2.95;;;;;;;;;;5910270;28;20053;-74
2023/10/10 05:26:21;;;;;;;3.40;3.03;;;;;;;;;;5910251;28;20056;-72
2023/10/10 05:29:14;;;;;;;1.80;1.70;;;;;;;;;;5910304;28;20419;-76
2023/10/10 05:32:08;;;;;;;4.25;2.63;;;;;;;;;;5909971;28;20162;-75
2023/10/10 05:35:01;;;;;;;5.10;2.42;;;;;;;;;;5910913;28;20044;-75
2023/10/10 05:37:56;;;;;;;2.67;2.03;;;;;;;;;;5910802;28;20103;-74
2023/10/10 05:40:47;;;;;;;1.92;1.77;;;;;;;;;;5892609;28;20124;-75
2023/10/10 05:43:39;;;;;;;3.47;2.25;;;;;;;;;;5910116;28;20454;-75
2023/10/10 05:46:30;;;;;;;3.05;2.30;;;;;;;;;;5910754;28;20120;-73
2023/10/10 05:49:21;;;;;;;2.20;1.80;;;;;;;;;;5914695;28;20076;-74
2023/10/10 05:52:12;;;;;;;3.88;2.03;;;;;;;;;;5914317;28;20037;-74
2023/10/10 05:55:03;;;;;;;3.08;1.85;;;;;;;;;;5914881;28;20510;-74
2023/10/10 05:57:57;;;;;;;4.40;2.97;;;;;;;;;;5914940;28;20340;-73
2023/10/10 06:00:48;;;;;;;4.10;1.83;;;;;;;;;;5897272;28;20159;-75
2023/10/10 06:03:42;;;;;;;4.28;2.25;;;;;;;;;;5896708;28;20048;-73
2023/10/10 06:06:33;;;;;;;3.35;2.70;;;;;;;;;;5914327;28;20041;-74
2023/10/10 06:09:27;;;;;;;4.70;2.88;;;;;;;;;;5914241;28;20052;-72
2023/10/10 06:12:19;;;;;;;3.28;2.40;;;;;;;;;;5913908;28;20037;-72
2023/10/10 06:15:11;;;;;;;2.67;2.47;;;;;;;;;;5914016;28;20147;-73
2023/10/10 06:18:13;;;;;;;2.55;2.35;;;;;;;;;;5913870;28;20487;-75
2023/10/10 06:21:07;;;;;;;2.28;1.95;;;;;;;;;;5913933;28;20044;-73
2023/10/10 06:24:00;;;;;;;2.30;2.08;;;;;;;;;;5914348;28;20044;-73
2023/10/10 06:26:53;;;;;;;4.93;2.50;;;;;;;;;;5914222;28;20041;-76
2023/10/10 06:29:48;;;;;;;5.85;3.47;;;;;;;;;;5913709;28;20044;-73
2023/10/10 06:32:39;;;;;;;4.10;2.80;;;;;;;;;;5913416;28;20067;-75
2023/10/10 06:35:35;;;;;;;2.10;1.90;;;;;;;;;;5913583;28;20102;-76
2023/10/10 06:38:26;;;;;;;5.97;2.70;;;;;;;;;;5913833;28;20226;-75
2023/10/10 06:41:22;;;;;;;2.55;2.28;;;;;;;;;;5913562;28;20146;-74
2023/10/10 06:44:13;;;;;;;4.15;2.25;;;;;;;;;;5913456;28;20095;-74
2023/10/10 06:47:10;;;;;;;4.85;2.90;;;;;;;;;;5895841;28;20572;-74
2023/10/10 06:50:10;;;;;;;7.25;2.95;;;;;;;;;;5913529;28;20045;-72
2023/10/10 06:53:01;;;;;;;3.95;2.92;;;;;;;;;;5913322;28;20044;-74
2023/10/10 06:55:52;;;;;;;3.33;2.15;;;;;;;;;;5913810;28;20048;-74
2023/10/10 06:58:44;;;;;;;4.40;2.53;;;;;;;;;;5894575;28;20051;-73
2023/10/10 07:01:35;;;;;;;2.08;1.88;;;;;;;;;;5913037;28;20048;-74
2023/10/10 07:04:35;;;;;;;4.97;3.38;;;;;;;;;;5913214;28;20495;-74
2023/10/10 07:07:26;;;;;;;3.38;2.45;;;;;;;;;;5912803;28;20052;-75
2023/10/10 07:10:25;;;;;;;3.78;2.90;;;;;;;;;;5912958;28;20056;-72
2023/10/10 07:13:19;;;;;;;3.50;2.83;;;;;;;;;;5896341;28;20056;-73
2023/10/10 07:16:09;;;;;;;3.92;2.70;;;;;;;;;;5912868;28;20056;-72
2023/10/10 07:19:18;;;;;;;4.03;2.00;;;;;;;;;;5912990;28;20131;-74
2023/10/10 07:22:12;;;;;;;3.40;2.67;;;;;;;;;;5912343;28;20037;-74
2023/10/10 07:25:07;;;;;;;4.18;3.25;;;;;;;;;;5912760;28;20051;-73
2023/10/10 07:28:04;;;;;;;3.60;2.85;;;;;;;;;;5913139;28;20483;-72
2023/10/10 07:30:55;;;;;;;2.80;2.45;;;;;;;;;;5912741;28;20036;-75
2023/10/10 07:33:55;;;;;;;5.43;3.38;;;;;;;;;;5894671;28;20048;-75
2023/10/10 07:36:50;;;;;;;5.35;3.70;;;;;;;;;;5912461;28;20178;-75
2023/10/10 07:39:57;;;;;;;3.75;2.45;;;;;;;;;;5912369;28;20044;-74
2023/10/10 07:42:59;;;;;;;4.05;2.10;;;;;;;;;;5912047;28;20083;-73
2023/10/10 07:45:52;;;;;;;4.55;3.20;;;;;;;;;;5912183;28;20045;-76
2023/10/10 07:48:46;;;;;;;2.88;2.58;;;;;;;;;;5912198;28;20052;-73
2023/10/10 07:51:49;;;;;;;2.47;2.28;;;;;;;;;;5894608;28;20036;-75
2023/10/10 07:54:41;;;;;;;4.68;2.15;;;;;;;;;;5911839;28;20581;-73
2023/10/10 07:57:55;;;;;;;4.28;2.15;;;;;;;;;;5911559;28;20057;-75
2023/10/10 08:00:44;;;;;;;4.55;2.13;;;;;;;;;;5911501;28;20064;-74
2023/10/10 08:03:36;;;;;;;4.88;3.40;;;;;;;;;;5911301;28;20059;-72
2023/10/10 08:06:27;;;;;;;6.28;2.92;;;;;;;;;;5911563;28;20495;-72
2023/10/10 08:09:23;;;;;;;6.15;2.90;;;;;;;;;;5893751;28;20048;-74
2023/10/10 08:12:15;;;;;;;3.33;2.47;;;;;;;;;;5911297;28;20048;-73
2023/10/10 08:15:19;;;;;;;2.55;2.33;;;;;;;;;;5911712;28;20052;-75
2023/10/10 08:18:12;;;;;;;4.15;2.40;;;;;;;;;;5911261;28;20045;-75
2023/10/10 08:23:58;;;;;;;6.82;2.75;;;;;;;;;;5911656;28;20040;-74
2023/10/10 08:26:51;;;;;;;3.25;2.13;;;;;;;;;;5911168;28;20068;-74
2023/10/10 08:29:42;;;;;;;5.63;3.58;;;;;;;;;;5911198;28;20434;-74
2023/10/10 08:32:33;;;;;;;4.10;2.80;;;;;;;;;;5910636;28;20464;-73
2023/10/10 08:35:29;;;;;;;2.67;2.45;;;;;;;;;;5910802;28;20049;-74
2023/10/10 08:38:21;;;;;;;6.65;3.63;;;;;;;;;;5893395;28;20119;-74
2023/10/10 08:41:12;;;;;;;6.95;3.70;;;;;;;;;;5910706;28;20131;-76
2023/10/10 08:44:04;;;;;;;5.65;4.32;;;;;;;;;;5893028;28;20151;-74
2023/10/10 08:46:58;;;;;;;2.90;2.40;;;;;;;;;;5893607;28;20060;-75
2023/10/10 08:49:49;;;;;;;4.75;2.95;;;;;;;;;;5893194;28;20070;-75
2023/10/10 08:52:41;;;;;;;4.38;3.42;;;;;;;;;;5910358;28;20052;-75
2023/10/10 08:55:34;;;;;;;5.53;3.03;;;;;;;;;;5910605;28;20396;-74
2023/10/10 08:58:32;;;;;;;7.40;3.45;;;;;;;;;;5893306;28;20128;-72
2023/10/10 09:01:23;;;;;;;24.42;5.20;;;;;;;;;;5910928;28;20056;-75
2023/10/10 09:04:18;;;;;;;4.53;3.67;;;;;;;;;;5910459;28;20174;-73
2023/10/10 09:07:27;;;;;;;5.75;4.00;;;;;;;;;;5910363;28;20135;-75
2023/10/10 09:10:28;;;;;;;3.53;3.08;;;;;;;;;;5910665;28;20078;-74
2023/10/10 09:13:19;;;;;;;4.35;3.10;;;;;;;;;;5910680;28;20051;-74
2023/10/10 09:16:13;;;;;;;5.30;3.10;;;;;;;;;;5910528;28;20066;-73
2023/10/10 09:19:10;;;;;;;4.65;3.15;;;;;;;;;;5910494;28;20048;-75
2023/10/10 09:22:09;;;;;;;5.23;3.97;;;;;;;;;;5896658;28;20044;-72
2023/10/10 09:25:18;;;;;;;5.90;4.63;;;;;;;;;;5911402;28;20052;-73
2023/10/10 09:28:15;;;;;;;6.85;3.58;;;;;;;;;;5917533;28;20044;-75
2023/10/10 09:31:12;;;;;;;7.47;3.83;;;;;;;;;;5917976;28;20055;-74
2023/10/10 09:34:06;;;;;;;5.95;4.10;;;;;;;;;;5918419;28;20064;-75
2023/10/10 09:36:59;;;;;;;8.07;4.25;;;;;;;;;;5918778;28;20415;-73
2023/10/10 09:39:55;;;;;;;4.90;3.17;;;;;;;;;;5909615;28;20037;-75
2023/10/10 09:45:59;;;;;;;4.63;3.40;;;;;;;;;;5918142;28;20502;-72
2023/10/10 10:01:04;;;;;;;7.30;3.70;;;;;;;;;;5901100;28;20052;-73
2023/10/10 10:04:03;;;;;;;9.48;4.93;;;;;;;;;;5900988;28;20132;-74
2023/10/10 10:07:25;;;;;;;10.07;4.40;;;;;;;;;;5901329;28;20526;-73
2023/10/10 10:10:54;;;;;;;9.10;4.50;;;;;;;;;;5901091;28;20494;-73
2023/10/10 10:14:12;;;;;;;10.38;5.35;;;;;;;;;;5899144;28;20052;-73
2023/10/10 10:17:47;;;;;;;75.35;32.65;;;;;;;;;;5917194;28;20037;-73
2023/10/10 10:21:04;;;;;;;75.38;39.22;;;;;;;;;;5904217;28;20053;-73
2023/10/10 10:24:14;;;;;;;15.85;7.75;;;;;;;;;;5896208;28;20087;-73
2023/10/10 10:27:31;;;;;;;17.95;8.35;;;;;;;;;;5895856;28;20044;-75
2023/10/10 10:33:14;;;;;;;35.40;21.25;;;;;;;;;;5914960;28;20478;-74
2023/10/10 10:36:06;;;;;;;123.80;64.13;;;;;;;;;;5913828;28;20071;-73
2023/10/10 10:39:25;;;;;;;30.88;12.55;;;;;;;;;;5914326;28;20048;-74
2023/10/10 10:42:17;;;;;;;30.48;12.57;;;;;;;;;;5913384;28;20068;-74
2023/10/10 10:45:38;;;;;;;34.10;17.23;;;;;;;;;;5913756;28;20521;-74
2023/10/10 10:48:29;;;;;;;21.20;10.32;;;;;;;;;;5913545;28;20045;-74
2023/10/10 10:51:32;;;;;;;22.60;11.02;;;;;;;;;;5913653;28;20127;-73
2023/10/10 10:54:35;;;;;;;13.55;7.57;;;;;;;;;;5897165;28;20045;-74
2023/10/10 10:57:38;;;;;;;8.60;5.55;;;;;;;;;;5913222;28;20134;-73
2023/10/10 11:01:00;;;;;;;50.05;22.48;;;;;;;;;;5899061;28;20131;-74
2023/10/10 11:03:54;;;;;;;18.17;9.23;;;;;;;;;;5913435;28;20040;-73
2023/10/10 11:06:59;;;;;;;14.68;6.43;;;;;;;;;;5895354;28;20423;-72
2023/10/10 11:09:53;;;;;;;38.88;15.23;;;;;;;;;;5838081;28;20049;-72
2023/10/10 11:12:44;;;;;;;69.47;24.42;;;;;;;;;;5889459;28;20549;-72
2023/10/10 11:15:39;;;;;;;16.73;6.13;;;;;;;;;;5872115;28;20107;-72
2023/10/10 11:18:34;;;;;;;18.40;9.32;;;;;;;;;;5889650;28;20051;-72
2023/10/10 11:21:30;;;;;;;14.38;6.32;;;;;;;;;;5888382;28;20111;-73
2023/10/10 11:24:29;;;;;;;30.70;15.77;;;;;;;;;;5889329;28;20045;-74
2023/10/10 11:27:26;;;;;;;11.18;6.32;;;;;;;;;;5880014;28;20095;-73
2023/10/10 11:30:25;;;;;;;54.08;20.92;;;;;;;;;;5907831;28;20040;-74
2023/10/10 11:33:30;;;;;;;;;;;;;;;;;;5895820;28;20198;-74
2023/10/10 11:36:37;;;;;;;7.70;5.70;;;;;;;;;;5912728;28;20287;-73
2023/10/10 11:39:32;;;;;;;5.25;2.97;;;;;;;;;;5912350;28;20490;-73
2023/10/10 11:42:33;;;;;;;23.95;11.18;;;;;;;;;;5912393;28;20440;-72
2023/10/10 11:45:29;;;;;;;20.92;9.23;;;;;;;;;;5911795;28;20052;-74
2023/10/10 11:48:22;;;;;;;8.45;3.70;;;;;;;;;;5887577;28;20436;-73
2023/10/10 11:51:14;;;;;;;6.05;3.60;;;;;;;;;;5898893;28;20041;-75
2023/10/10 11:54:05;;;;;;;20.35;9.40;;;;;;;;;;5912280;28;20041;-74
2023/10/10 11:56:56;;;;;;;11.30;5.50;;;;;;;;;;5887262;28;20040;-74
2023/10/10 11:59:47;;;;;;;5.80;3.35;;;;;;;;;;5912028;28;20056;-74
2023/10/10 12:02:41;;;;;;;37.85;14.48;;;;;;;;;;5911898;28;20051;-74
2023/10/10 12:08:26;;;;;;;10.20;6.18;;;;;;;;;;5911775;28;21253;-73
2023/10/10 12:11:21;;;;;;;11.95;6.00;;;;;;;;;;5911717;28;20045;-74
2023/10/10 12:14:19;;;;;;;6.95;3.38;;;;;;;;;;5926378;28;20040;-73
2023/10/10 12:17:10;;;;;;;6.95;4.13;;;;;;;;;;5911399;28;20442;-72
2023/10/10 12:20:02;;;;;;;10.35;4.20;;;;;;;;;;5911680;28;20049;-74
2023/10/10 12:22:53;;;;;;;5.88;3.10;;;;;;;;;;5911870;28;20048;-73
2023/10/10 12:25:43;;;;;;;4.75;3.13;;;;;;;;;;5911203;28;20060;-73
2023/10/10 12:28:38;;;;;;;8.32;3.95;;;;;;;;;;5904228;28;20084;-73
2023/10/10 12:31:37;;;;;;;3.22;2.13;;;;;;;;;;5906924;28;20052;-73
2023/10/10 12:34:27;;;;;;;10.18;3.75;;;;;;;;;;5909273;28;20384;-73
2023/10/10 12:37:23;;;;;;;7.82;3.65;;;;;;;;;;5889954;28;20045;-73
2023/10/10 12:40:15;;;;;;;11.35;5.10;;;;;;;;;;5893712;28;20044;-72
2023/10/10 12:43:14;;;;;;;7.95;3.42;;;;;;;;;;5923361;28;20051;-74
2023/10/10 12:46:07;;;;;;;3.75;2.63;;;;;;;;;;5865104;28;20060;-73
2023/10/10 12:48:58;;;;;;;3.67;2.58;;;;;;;;;;5892921;28;20498;-73
2023/10/10 12:51:53;;;;;;;15.68;4.47;;;;;;;;;;5932500;28;20499;-72
2023/10/10 12:54:46;;;;;;;3.35;2.00;;;;;;;;;;5912528;28;20566;-72
2023/10/10 12:57:37;;;;;;;2.78;2.55;;;;;;;;;;5904071;28;20047;-74
2023/10/10 13:00:33;;;;;;;6.70;3.50;;;;;;;;;;5916818;28;20048;-73
2023/10/10 13:03:27;;;;;;;22.77;6.57;;;;;;;;;;5906535;28;20125;-72
2023/10/10 13:06:22;;;;;;;12.75;3.80;;;;;;;;;;5910037;28;20052;-76
2023/10/10 13:09:15;;;;;;;7.55;3.97;;;;;;;;;;5897724;28;20106;-74
2023/10/10 13:12:06;;;;;;;11.18;3.20;;;;;;;;;;5930204;28;20058;-73
2023/10/10 13:15:16;;;;;;;6.85;4.65;;;;;;;;;;5902694;28;20048;-73
2023/10/10 13:18:19;;;;;;;9.00;2.78;;;;;;;;;;5909287;28;20045;-73
2023/10/10 13:21:10;;;;;;;4.38;3.20;;;;;;;;;;5924401;28;20047;-73
2023/10/10 13:24:01;;;;;;;11.27;4.40;;;;;;;;;;5918166;28;20045;-73
2023/10/10 13:26:52;;;;;;;11.68;4.05;;;;;;;;;;5883058;28;20072;-73
2023/10/10 13:29:43;;;;;;;7.70;3.95;;;;;;;;;;5885171;28;20052;-72
2023/10/10 13:32:34;;;;;;;6.63;3.00;;;;;;;;;;5885944;28;20408;-72
2023/10/10 13:35:25;;;;;;;4.28;3.38;;;;;;;;;;5897861;28;20393;-73
2023/10/10 13:38:17;;;;;;;7.85;5.22;;;;;;;;;;5899176;28;20040;-72
2023/10/10 13:41:09;;;;;;;5.53;3.67;;;;;;;;;;5903518;28;20129;-73
2023/10/10 13:43:59;;;;;;;9.25;4.63;;;;;;;;;;5900674;28;20060;-74
2023/10/10 13:46:52;;;;;;;17.02;4.45;;;;;;;;;;5901847;28;20392;-73
2023/10/10 13:49:45;;;;;;;14.85;5.53;;;;;;;;;;5895024;28;20053;-73
2023/10/10 13:52:38;;;;;;;11.65;5.80;;;;;;;;;;5883569;28;20053;-73
2023/10/10 13:55:34;;;;;;;7.63;5.18;;;;;;;;;;5901133;28;20111;-73
2023/10/10 13:58:25;;;;;;;7.25;5.20;;;;;;;;;;5885997;28;20045;-73
2023/10/10 14:01:25;;;;;;;9.45;4.88;;;;;;;;;;5886287;28;20044;-72
2023/10/10 14:04:25;;;;;;;17.00;9.48;;;;;;;;;;5886527;28;20432;-73
2023/10/10 14:07:17;;;;;;;16.20;11.43;;;;;;;;;;5886692;28;20123;-73
2023/10/10 14:10:09;;;;;;;15.50;11.10;;;;;;;;;;5890902;28;20040;-73
2023/10/10 14:13:17;;;;;;;6.32;4.25;;;;;;;;;;5891456;28;20045;-72
2023/10/10 14:16:10;;;;;;;9.10;5.32;;;;;;;;;;5890533;28;20049;-73
2023/10/10 14:19:01;;;;;;;8.98;4.85;;;;;;;;;;5891274;28;20480;-76
2023/10/10 14:21:53;;;;;;;14.80;8.40;;;;;;;;;;5905706;28;20045;-73
2023/10/10 14:24:44;;;;;;;8.73;5.40;;;;;;;;;;5890674;28;20455;-72
2023/10/10 14:27:34;;;;;;;9.80;4.00;;;;;;;;;;5890554;28;20400;-73
2023/10/10 14:30:25;;;;;;;10.23;5.82;;;;;;;;;;5890838;28;20045;-73
2023/10/10 14:33:17;;;;;;;42.78;5.55;;;;;;;;;;5890681;28;20379;-73
2023/10/10 14:36:11;;;;;;;15.73;6.80;;;;;;;;;;5890483;28;20406;-72
2023/10/10 14:39:02;;;;;;;10.10;5.15;;;;;;;;;;5905800;28;20045;-74
2023/10/10 14:41:52;;;;;;;8.90;4.78;;;;;;;;;;5890920;28;20044;-72
2023/10/10 14:44:43;;;;;;;13.85;6.07;;;;;;;;;;5889589;28;20053;-73
2023/10/10 14:47:36;;;;;;;13.10;6.15;;;;;;;;;;5890166;28;20437;-73
2023/10/10 14:50:27;;;;;;;9.10;6.35;;;;;;;;;;5890486;28;20468;-73
2023/10/10 14:53:22;;;;;;;12.63;6.15;;;;;;;;;;5889878;28;20051;-72
2023/10/10 14:56:19;;;;;;;10.80;5.47;;;;;;;;;;5887747;28;20048;-73
2023/10/10 14:59:17;;;;;;;11.65;6.82;;;;;;;;;;5913859;28;20049;-74
2023/10/10 15:02:12;;;;;;;44.90;23.08;;;;;;;;;;5912175;28;20049;-73
2023/10/10 15:05:10;;;;;;;54.20;24.52;;;;;;;;;;5912471;28;20048;-76
2023/10/10 15:08:04;;;;;;;19.95;8.13;;;;;;;;;;5908933;28;20083;-72
2023/10/10 15:10:55;;;;;;;9.80;4.05;;;;;;;;;;5904357;28;20416;-74
2023/10/10 15:13:46;;;;;;;10.25;4.88;;;;;;;;;;5903676;28;20483;-72
2023/10/10 15:16:38;;;;;;;16.17;5.45;;;;;;;;;;5898989;28;20049;-73
2023/10/10 15:19:29;;;;;;;36.20;15.75;;;;;;;;;;5906970;28;20045;-74
2023/10/10 15:22:20;;;;;;;34.75;11.07;;;;;;;;;;5910262;28;20041;-72
2023/10/10 15:25:11;;;;;;;15.32;8.68;;;;;;;;;;5909251;28;20056;-72
2023/10/10 15:28:03;;;;;;;10.00;5.85;;;;;;;;;;5912236;28;20048;-72
2023/10/10 15:30:54;;;;;;;18.80;8.18;;;;;;;;;;5904030;28;20040;-74
2023/10/10 15:33:44;;;;;;;21.58;12.48;;;;;;;;;;5912341;28;20403;-73
2023/10/10 15:36:35;;;;;;;31.48;14.63;;;;;;;;;;5894227;28;20051;-74
2023/10/10 15:39:26;;;;;;;15.70;7.10;;;;;;;;;;5912015;28;20048;-72
2023/10/10 15:42:18;;;;;;;18.40;7.63;;;;;;;;;;5911317;28;20064;-72
2023/10/10 15:45:09;;;;;;;18.92;8.18;;;;;;;;;;5911322;28;20068;-72
2023/10/10 15:48:00;;;;;;;28.23;13.52;;;;;;;;;;5912163;28;20052;-73
2023/10/10 15:50:57;;;;;;;19.00;9.32;;;;;;;;;;5911839;28;20044;-74
2023/10/10 15:53:49;;;;;;;52.15;23.08;;;;;;;;;;5911886;28;20044;-74
2023/10/10 15:56:39;;;;;;;31.13;11.65;;;;;;;;;;5910827;28;20048;-72
2023/10/10 15:59:30;;;;;;;104.93;40.95;;;;;;;;;;5911351;28;20403;-74
2023/10/10 16:02:21;;;;;;;91.35;37.70;;;;;;;;;;5893553;28;20060;-72
2023/10/10 16:05:16;;;;;;;87.72;39.08;;;;;;;;;;5910856;28;20052;-73
2023/10/10 16:08:07;;;;;;;115.15;44.78;;;;;;;;;;5911135;28;20049;-74
2023/10/10 16:10:59;;;;;;;138.98;55.63;;;;;;;;;;5911178;28;20052;-74
2023/10/10 16:13:50;;;;;;;41.90;20.55;;;;;;;;;;5903270;28;20044;-72
2023/10/10 16:16:43;;;;;;;15.75;7.75;;;;;;;;;;5906720;28;20400;-74
2023/10/10 16:19:36;;;;;;;62.40;22.30;;;;;;;;;;5911092;28;20117;-73
2023/10/10 16:22:27;;;;;;;109.10;41.70;;;;;;;;;;5909590;28;20048;-73
2023/10/10 16:25:22;;;;;;;65.45;29.02;;;;;;;;;;5907049;28;20409;-73
2023/10/10 16:28:13;;;;;;;29.55;16.85;;;;;;;;;;5903773;28;20040;-73
2023/10/10 16:31:07;;;;;;;21.58;13.38;;;;;;;;;;5880189;28;20131;-73
2023/10/10 16:33:58;;;;;;;13.57;8.88;;;;;;;;;;5933997;28;20048;-73
2023/10/10 16:36:49;;;;;;;19.65;12.20;;;;;;;;;;5919459;28;20064;-73
2023/10/10 16:39:44;;;;;;;25.67;14.90;;;;;;;;;;5910462;28;20063;-72
2023/10/10 16:42:35;;;;;;;47.83;24.48;;;;;;;;;;5910082;28;20048;-73
2023/10/10 16:45:32;;;;;;;44.28;26.23;;;;;;;;;;5909701;28;20059;-72
2023/10/10 16:48:23;;;;;;;110.32;47.70;;;;;;;;;;5910653;28;20040;-73
2023/10/10 16:51:20;;;;;;;49.10;20.13;;;;;;;;;;5910049;28;20048;-72
2023/10/10 16:54:12;;;;;;;188.23;76.22;;;;;;;;;;5910367;28;20377;-73
2023/10/10 16:57:05;;;;;;;40.47;15.23;;;;;;;;;;5903010;28;20068;-74
2023/10/10 16:59:57;;;;;;;8.85;6.78;;;;;;;;;;5910857;28;20048;-73
2023/10/10 17:02:49;;;;;;;18.13;13.20;;;;;;;;;;5909669;28;20052;-72
2023/10/10 17:05:40;;;;;;;20.17;11.63;;;;;;;;;;5909551;28;20126;-73
2023/10/10 17:08:36;;;;;;;11.40;6.30;;;;;;;;;;5892533;28;20097;-73
2023/10/10 17:11:27;;;;;;;9.15;5.80;;;;;;;;;;5909751;28;20445;-72
2023/10/10 17:14:20;;;;;;;8.18;5.35;;;;;;;;;;5909836;28;20135;-72
2023/10/10 17:17:13;;;;;;;5.70;4.32;;;;;;;;;;5884789;28;20175;-73
2023/10/10 17:20:04;;;;;;;9.38;4.25;;;;;;;;;;5886693;28;20045;-76
2023/10/10 17:22:55;;;;;;;18.40;6.65;;;;;;;;;;5910683;28;20360;-74
2023/10/10 17:25:46;;;;;;;25.88;12.57;;;;;;;;;;5909194;28;20476;-73
2023/10/10 17:28:41;;;;;;;57.75;21.35;;;;;;;;;;5910231;28;20407;-72
2023/10/10 17:31:32;;;;;;;18.73;9.80;;;;;;;;;;5891436;28;20502;-72
2023/10/10 17:34:31;;;;;;;27.83;12.80;;;;;;;;;;5909809;28;20048;-73
2023/10/10 17:37:22;;;;;;;23.83;14.13;;;;;;;;;;5893608;28;20087;-74
2023/10/10 17:40:13;;;;;;;17.42;9.60;;;;;;;;;;5888388;28;20136;-73
2023/10/10 17:43:04;;;;;;;18.17;8.10;;;;;;;;;;5911040;28;20045;-74
2023/10/10 17:45:55;;;;;;;15.73;6.20;;;;;;;;;;5905690;28;20052;-74
2023/10/10 17:48:53;;;;;;;7.53;5.85;;;;;;;;;;5899976;28;20047;-74
2023/10/10 17:51:44;;;;;;;13.50;8.18;;;;;;;;;;5872802;28;20055;-74
2023/10/10 17:54:39;;;;;;;13.30;6.43;;;;;;;;;;5884311;28;20095;-73
2023/10/10 17:57:32;;;;;;;16.48;7.60;;;;;;;;;;5900196;28;20044;-72
2023/10/10 18:00:31;;;;;;;7.35;5.18;;;;;;;;;;5909863;28;20044;-73
2023/10/10 18:03:22;;;;;;;10.10;6.40;;;;;;;;;;5905352;28;20049;-73
2023/10/10 18:06:21;;;;;;;10.23;5.78;;;;;;;;;;5912964;28;20055;-73
2023/10/10 18:09:16;;;;;;;7.37;4.37;;;;;;;;;;5905365;28;20055;-72
2023/10/10 18:12:11;;;;;;;6.22;4.72;;;;;;;;;;5912689;28;20047;-74
2023/10/10 18:15:05;;;;;;;16.38;6.57;;;;;;;;;;5906512;28;20047;-72
2023/10/10 18:17:57;;;;;;;9.00;5.25;;;;;;;;;;5883683;28;20504;-72
2023/10/10 18:20:49;;;;;;;10.63;5.88;;;;;;;;;;5895472;28;20080;-73
2023/10/10 18:23:41;;;;;;;11.07;6.60;;;;;;;;;;5893946;28;20492;-73
2023/10/10 18:26:37;;;;;;;16.98;5.80;;;;;;;;;;5906549;28;20060;-74
2023/10/10 18:29:28;;;;;;;8.27;5.72;;;;;;;;;;5889644;28;20041;-73
2023/10/10 18:32:18;;;;;;;16.92;9.90;;;;;;;;;;5889863;28;20059;-73
2023/10/10 18:35:13;;;;;;;17.63;9.20;;;;;;;;;;5889663;28;20583;-73
2023/10/10 18:38:07;;;;;;;20.88;10.90;;;;;;;;;;5884012;28;20556;-74
2023/10/10 18:40:58;;;;;;;19.92;9.05;;;;;;;;;;5927718;28;20040;-72
2023/10/10 18:43:57;;;;;;;20.50;8.23;;;;;;;;;;5905034;28;20063;-73
2023/10/10 18:46:49;;;;;;;13.80;8.45;;;;;;;;;;5894508;28;20044;-72
2023/10/10 18:49:39;;;;;;;9.38;5.47;;;;;;;;;;5908417;28;20048;-73
2023/10/10 18:52:34;;;;;;;23.13;8.32;;;;;;;;;;5907276;28;20048;-73
2023/10/10 18:55:27;;;;;;;18.27;8.80;;;;;;;;;;5883885;28;20052;-74
2023/10/10 18:58:18;;;;;;;17.10;8.00;;;;;;;;;;5870950;28;20056;-74
2023/10/10 19:01:11;;;;;;;8.98;5.72;;;;;;;;;;5889033;28;20108;-73
2023/10/10 19:04:03;;;;;;;14.73;6.05;;;;;;;;;;5880095;28;20564;-73
2023/10/10 19:06:54;;;;;;;11.15;6.28;;;;;;;;;;5889575;28;20061;-74
2023/10/10 19:09:45;;;;;;;14.35;6.13;;;;;;;;;;5889405;28;20048;-73
2023/10/10 19:12:36;;;;;;;12.73;7.60;;;;;;;;;;5887818;28;20115;-73
2023/10/10 19:15:27;;;;;;;18.48;7.32;;;;;;;;;;5887490;28;20392;-74
2023/10/10 19:18:18;;;;;;;42.70;9.60;;;;;;;;;;5893863;28;20044;-73
2023/10/10 19:21:15;;;;;;;13.98;7.40;;;;;;;;;;5888089;28;20057;-73
2023/10/10 19:24:07;;;;;;;10.07;7.15;;;;;;;;;;5891216;28;20143;-73
2023/10/10 19:26:59;;;;;;;11.15;7.43;;;;;;;;;;5890051;28;20056;-74
2023/10/10 19:29:50;;;;;;;12.73;7.07;;;;;;;;;;5916699;28;20041;-74
2023/10/10 19:32:40;;;;;;;13.93;9.95;;;;;;;;;;5903238;28;20045;-73
2023/10/10 19:35:31;;;;;;;13.63;8.05;;;;;;;;;;5895531;28;20047;-73
2023/10/10 19:38:33;;;;;;;12.32;8.98;;;;;;;;;;5896669;28;20174;-73
2023/10/10 19:41:24;;;;;;;18.85;9.55;;;;;;;;;;5887594;28;20052;-73
2023/10/10 19:44:15;;;;;;;15.93;8.95;;;;;;;;;;5887577;28;20381;-73
2023/10/10 19:47:10;;;;;;;19.95;8.75;;;;;;;;;;5888015;28;20053;-73
2023/10/10 19:50:01;;;;;;;17.17;9.15;;;;;;;;;;5923648;28;20066;-74
2023/10/10 19:52:59;;;;;;;14.65;7.95;;;;;;;;;;5911842;28;20113;-73